Time;durP1;ratioP1;P1;durP2;ratioP2;P2;SDS_P1;SDS_P2;PMS_P1;PMS_P2;Temp;Humidity;BMP_temperature;BMP_pressure;BME280_temperature;BME280_humidity;BME280_pressure;Samples;Min_cycle;Max_cycle;Signal;HPM_P1;HPM_P2
2021/09/21 00:00:17;;;;;;;;;;;16.60;72.40;;;;;;5111073;28;19954;-74
2021/09/21 00:02:42;;;;;;;;;;;16.50;72.40;;;;;;5110948;28;19942;-73
2021/09/21 00:05:08;;;;;;;;;;;16.50;72.50;;;;;;5111148;28;19908;-77
2021/09/21 00:07:34;;;;;;;;;;;16.40;72.80;;;;;;5110825;28;19926;-75
2021/09/21 00:09:59;;;;;;;;;;;16.30;72.90;;;;;;5092983;28;19911;-75
2021/09/21 00:12:25;;;;;;;;;;;16.30;72.80;;;;;;5111188;28;19958;-76
2021/09/21 00:14:50;;;;;;;;;;;16.20;72.90;;;;;;5093095;28;19907;-73
2021/09/21 00:17:16;;;;;;;;;;;16.10;73.00;;;;;;5111437;28;19904;-74
2021/09/21 00:19:41;;;;;;;;;;;16.10;73.00;;;;;;5111257;28;20333;-74
2021/09/21 00:22:07;;;;;;;;;;;16.10;73.20;;;;;;5092732;28;20159;-74
2021/09/21 00:24:33;;;;;;;;;;;16.00;73.20;;;;;;5092927;28;19950;-77
2021/09/21 00:26:59;;;;;;;;;;;16.00;73.20;;;;;;5110718;28;19918;-74
2021/09/21 00:29:24;;;;;;;;;;;16.00;73.20;;;;;;5110670;28;20011;-74
2021/09/21 00:31:58;;;;;;;;;;;15.90;73.20;;;;;;5110496;28;19908;-73
2021/09/21 00:34:27;;;;;;;;;;;15.90;73.20;;;;;;5092224;28;19926;-75
2021/09/21 00:36:53;;;;;;;;;;;15.90;73.20;;;;;;5092496;28;19915;-75
2021/09/21 00:39:19;;;;;;;;;;;15.90;73.20;;;;;;5110108;28;19908;-76
2021/09/21 00:41:45;;;;;;;;;;;15.80;73.10;;;;;;5109760;28;20052;-73
2021/09/21 00:44:10;;;;;;;;;;;15.80;73.30;;;;;;5110474;28;20417;-75
2021/09/21 00:46:36;;;;;;;;;;;15.80;73.20;;;;;;5110248;28;19987;-75
2021/09/21 00:49:02;;;;;;;;;;;15.80;73.20;;;;;;5110155;28;19908;-74
2021/09/21 00:51:28;;;;;;;;;;;15.70;73.30;;;;;;5091975;28;19947;-77
2021/09/21 00:53:54;;;;;;;;;;;15.70;73.30;;;;;;5109969;28;19915;-74
2021/09/21 00:56:19;;;;;;;;;;;15.70;73.30;;;;;;5091753;28;19911;-73
2021/09/21 00:58:45;;;;;;;;;;;15.80;73.50;;;;;;5110427;28;19921;-75
2021/09/21 01:01:10;;;;;;;;;;;15.80;73.40;;;;;;5092008;28;19907;-74
2021/09/21 01:03:36;;;;;;;;;;;16.00;73.60;;;;;;5110190;28;19952;-76
2021/09/21 01:06:02;;;;;;;;;;;16.00;73.80;;;;;;5110014;28;19908;-75
2021/09/21 01:08:28;;;;;;;;;;;16.10;74.00;;;;;;5109724;28;20345;-75
2021/09/21 01:10:54;;;;;;;;;;;16.10;73.90;;;;;;5110137;28;19914;-75
2021/09/21 01:13:19;;;;;;;;;;;16.20;74.10;;;;;;5110041;28;19907;-73
2021/09/21 01:15:45;;;;;;;;;;;16.20;74.20;;;;;;5091838;28;19907;-75
2021/09/21 01:18:10;;;;;;;;;;;16.20;74.50;;;;;;5110061;28;19916;-75
2021/09/21 01:20:36;;;;;;;;;;;16.20;74.60;;;;;;5109642;28;19915;-74
2021/09/21 01:23:03;;;;;;;;;;;16.20;74.70;;;;;;5109668;28;19911;-74
2021/09/21 01:25:28;;;;;;;;;;;16.20;74.80;;;;;;5109602;28;19908;-74
2021/09/21 01:27:54;;;;;;;;;;;16.20;74.70;;;;;;5091431;28;19983;-75
2021/09/21 01:30:20;;;;;;;;;;;16.20;74.80;;;;;;5109220;28;19908;-75
2021/09/21 01:32:45;;;;;;;;;;;16.30;75.00;;;;;;5109331;28;20002;-74
2021/09/21 01:35:12;;;;;;;;;;;16.30;74.90;;;;;;5109199;28;19914;-75
2021/09/21 01:37:38;;;;;;;;;;;16.30;75.00;;;;;;5090847;28;20392;-73
2021/09/21 01:40:04;;;;;;;;;;;16.30;74.90;;;;;;5091443;28;19921;-75
2021/09/21 01:42:30;;;;;;;;;;;16.30;75.00;;;;;;5109304;28;19907;-74
2021/09/21 01:44:55;;;;;;;;;;;16.30;75.00;;;;;;5109196;28;19911;-77
2021/09/21 01:47:21;;;;;;;;;;;16.20;75.00;;;;;;5109803;28;20317;-75
2021/09/21 01:50:18;;;;;;;;;;;16.10;75.00;;;;;;5108991;28;20413;-74
2021/09/21 01:53:01;;;;;;;;;;;16.00;74.90;;;;;;5108841;28;20358;-74
2021/09/21 02:00:43;;;;;;;;;;;15.70;75.00;;;;;;5109323;28;19911;-73
2021/09/21 02:03:09;;;;;;;;;;;15.60;75.40;;;;;;5108983;28;19908;-74
2021/09/21 02:05:34;;;;;;;;;;;15.50;75.50;;;;;;5090594;28;19910;-74
2021/09/21 02:08:00;;;;;;;;;;;15.40;75.80;;;;;;5108528;28;19923;-76
2021/09/21 02:10:26;;;;;;;;;;;15.30;75.90;;;;;;5109006;28;19911;-73
2021/09/21 02:12:51;;;;;;;;;;;15.30;76.00;;;;;;5108960;28;19904;-73
2021/09/21 02:15:17;;;;;;;;;;;15.20;76.10;;;;;;5109037;28;20391;-75
2021/09/21 02:17:42;;;;;;;;;;;15.10;76.20;;;;;;5108819;28;19908;-74
2021/09/21 02:20:08;;;;;;;;;;;15.10;76.40;;;;;;5108989;28;19911;-74
2021/09/21 02:22:34;;;;;;;;;;;15.10;76.70;;;;;;5108784;28;19904;-74
2021/09/21 02:24:59;;;;;;;;;;;15.10;76.70;;;;;;5108771;28;19915;-77
2021/09/21 02:27:25;;;;;;;;;;;15.10;76.80;;;;;;5108836;28;19908;-76
2021/09/21 02:29:51;;;;;;;;;;;15.10;76.90;;;;;;5108899;28;19904;-77
2021/09/21 02:32:16;;;;;;;;;;;15.20;76.70;;;;;;5108814;28;19962;-74
2021/09/21 02:34:45;;;;;;;;;;;15.30;76.60;;;;;;5090579;28;19931;-76
2021/09/21 02:37:12;;;;;;;;;;;15.30;76.60;;;;;;5108722;28;19908;-76
2021/09/21 02:39:38;;;;;;;;;;;15.30;76.50;;;;;;5108477;28;20018;-76
2021/09/21 02:42:03;;;;;;;;;;;15.30;76.60;;;;;;5108514;28;19951;-74
2021/09/21 02:44:29;;;;;;;;;;;15.30;76.60;;;;;;5090633;28;20431;-77
2021/09/21 02:46:54;;;;;;;;;;;15.30;76.80;;;;;;5090569;28;19912;-77
2021/09/21 02:49:20;;;;;;;;;;;15.20;77.30;;;;;;5108514;28;19932;-76
2021/09/21 02:51:45;;;;;;;;;;;15.30;77.70;;;;;;5108594;28;20389;-74
2021/09/21 02:54:11;;;;;;;;;;;15.30;77.90;;;;;;5108478;28;20282;-74
2021/09/21 02:56:37;;;;;;;;;;;15.30;77.90;;;;;;5108660;28;20053;-75
2021/09/21 02:59:02;;;;;;;;;;;15.40;78.00;;;;;;5108749;28;19911;-74
2021/09/21 03:01:28;;;;;;;;;;;15.40;78.00;;;;;;5108684;28;19908;-74
2021/09/21 03:03:57;;;;;;;;;;;15.30;78.00;;;;;;5108737;28;19957;-75
2021/09/21 03:06:31;;;;;;;;;;;15.30;78.40;;;;;;5111886;28;19916;-75
2021/09/21 03:09:10;;;;;;;;;;;15.30;78.60;;;;;;5112191;28;19920;-75
2021/09/21 03:11:42;;;;;;;;;;;15.40;78.80;;;;;;5112662;28;20353;-73
2021/09/21 03:19:26;;;;;;;;;;;15.50;79.30;;;;;;5112300;28;19914;-76
2021/09/21 03:21:53;;;;;;;;;;;15.60;79.40;;;;;;5093944;28;19908;-75
2021/09/21 03:24:18;;;;;;;;;;;15.60;79.30;;;;;;5111612;28;19914;-74
2021/09/21 03:26:44;;;;;;;;;;;15.70;79.40;;;;;;5093513;28;19904;-74
2021/09/21 03:29:09;;;;;;;;;;;15.70;79.30;;;;;;5111393;28;19911;-76
2021/09/21 03:31:35;;;;;;;;;;;15.80;79.30;;;;;;5111394;28;19907;-73
2021/09/21 03:34:01;;;;;;;;;;;15.80;79.40;;;;;;5111209;28;19945;-75
2021/09/21 03:36:26;;;;;;;;;;;15.80;79.40;;;;;;5093008;28;20388;-74
2021/09/21 03:38:52;;;;;;;;;;;15.80;79.10;;;;;;5111254;28;19908;-75
2021/09/21 03:41:17;;;;;;;;;;;15.80;79.40;;;;;;5111148;28;20408;-76
2021/09/21 03:43:43;;;;;;;;;;;15.70;79.60;;;;;;5076049;28;20308;-76
2021/09/21 03:46:08;;;;;;;;;;;15.60;79.70;;;;;;5111630;28;19911;-76
2021/09/21 03:48:34;;;;;;;;;;;15.60;79.90;;;;;;5092828;28;20010;-76
2021/09/21 03:50:59;;;;;;;;;;;15.70;80.20;;;;;;5110923;28;19904;-75
2021/09/21 03:53:25;;;;;;;;;;;15.70;80.10;;;;;;5092810;28;19908;-74
2021/09/21 03:55:51;;;;;;;;;;;15.60;79.80;;;;;;5075589;28;19907;-76
2021/09/21 03:58:16;;;;;;;;;;;15.60;79.80;;;;;;5110770;28;19907;-76
2021/09/21 04:00:42;;;;;;;;;;;15.50;79.90;;;;;;5110476;28;19994;-76
2021/09/21 04:03:07;;;;;;;;;;;15.40;80.00;;;;;;5111090;28;19908;-75
2021/09/21 04:05:33;;;;;;;;;;;15.30;80.50;;;;;;5093040;28;19954;-74
2021/09/21 04:07:59;;;;;;;;;;;15.30;80.70;;;;;;5092259;28;19924;-72
2021/09/21 04:10:24;;;;;;;;;;;15.30;81.40;;;;;;5110721;28;19912;-73
2021/09/21 04:12:50;;;;;;;;;;;15.40;80.90;;;;;;5110974;28;20259;-73
2021/09/21 04:15:15;;;;;;;;;;;15.50;80.50;;;;;;5111129;28;19915;-75
2021/09/21 04:17:41;;;;;;;;;;;15.40;80.30;;;;;;5109553;28;19914;-77
2021/09/21 04:20:07;;;;;;;;;;;15.30;80.40;;;;;;5110604;28;19908;-75
2021/09/21 04:22:33;;;;;;;;;;;15.30;80.50;;;;;;5110616;28;19956;-76
2021/09/21 04:24:59;;;;;;;;;;;15.20;80.70;;;;;;5110421;28;20328;-74
2021/09/21 04:27:24;;;;;;;;;;;15.10;80.80;;;;;;5110422;28;20397;-78
2021/09/21 04:29:54;;;;;;;;;;;15.10;81.10;;;;;;5110416;28;19911;-77
2021/09/21 04:32:20;;;;;;;;;;;15.10;81.50;;;;;;5110214;28;19949;-76
2021/09/21 04:34:47;;;;;;;;;;;15.10;81.90;;;;;;5091604;28;19912;-75
2021/09/21 04:37:12;;;;;;;;;;;15.20;82.00;;;;;;5092082;28;20025;-76
2021/09/21 04:39:41;;;;;;;;;;;15.30;82.10;;;;;;5109944;28;20018;-74
2021/09/21 04:42:07;;;;;;;;;;;15.40;82.20;;;;;;5110131;28;19915;-75
2021/09/21 04:44:33;;;;;;;;;;;15.50;82.00;;;;;;5109957;28;19908;-77
2021/09/21 04:46:59;;;;;;;;;;;15.60;81.90;;;;;;5109800;28;19923;-75
2021/09/21 04:49:24;;;;;;;;;;;15.70;81.80;;;;;;5091368;28;19915;-77
2021/09/21 04:51:50;;;;;;;;;;;15.70;81.90;;;;;;5109936;28;19918;-76
2021/09/21 04:54:15;;;;;;;;;;;15.90;82.30;;;;;;5109988;28;20283;-78
2021/09/21 04:56:41;;;;;;;;;;;15.90;82.30;;;;;;5109933;28;19904;-76
2021/09/21 04:59:07;;;;;;;;;;;15.90;82.20;;;;;;5109821;28;19991;-75
2021/09/21 05:01:32;;;;;;;;;;;15.90;82.20;;;;;;5109695;28;20274;-74
2021/09/21 05:03:58;;;;;;;;;;;15.90;82.30;;;;;;5109612;28;20311;-77
2021/09/21 05:06:23;;;;;;;;;;;15.90;82.20;;;;;;5091564;28;20033;-74
2021/09/21 05:08:49;;;;;;;;;;;15.90;82.20;;;;;;5091249;28;19928;-78
2021/09/21 05:11:14;;;;;;;;;;;15.80;82.10;;;;;;5109824;28;19956;-77
2021/09/21 05:13:40;;;;;;;;;;;15.70;82.00;;;;;;5091577;28;19959;-75
2021/09/21 05:16:05;;;;;;;;;;;15.70;82.00;;;;;;5109386;28;19914;-76
2021/09/21 05:18:31;;;;;;;;;;;15.60;82.10;;;;;;5109193;28;19908;-76
2021/09/21 05:20:57;;;;;;;;;;;15.60;82.30;;;;;;5091116;28;19907;-74
2021/09/21 05:23:23;;;;;;;;;;;15.60;82.80;;;;;;5109349;28;20342;-74
2021/09/21 05:25:48;;;;;;;;;;;15.60;83.10;;;;;;5109192;28;19959;-75
2021/09/21 05:28:14;;;;;;;;;;;15.60;83.20;;;;;;5108747;28;19915;-76
2021/09/21 05:30:39;;;;;;;;;;;15.60;83.30;;;;;;5109169;28;19903;-74
2021/09/21 05:33:05;;;;;;;;;;;15.70;83.30;;;;;;5109013;28;19912;-78
2021/09/21 05:35:31;;;;;;;;;;;15.70;83.50;;;;;;5109404;28;19947;-76
2021/09/21 05:37:56;;;;;;;;;;;15.80;83.70;;;;;;5074118;28;19961;-75
2021/09/21 05:40:22;;;;;;;;;;;15.80;83.70;;;;;;5109086;28;19977;-76
2021/09/21 05:42:47;;;;;;;;;;;15.80;83.70;;;;;;5090593;28;19907;-77
2021/09/21 05:45:13;;;;;;;;;;;15.70;83.60;;;;;;5108893;28;20277;-76
2021/09/21 05:47:39;;;;;;;;;;;15.60;83.70;;;;;;5090740;28;19918;-75
2021/09/21 05:50:05;;;;;;;;;;;15.50;83.70;;;;;;5108756;28;20050;-77
2021/09/21 05:52:31;;;;;;;;;;;15.40;84.20;;;;;;5090673;28;19958;-77
2021/09/21 05:54:56;;;;;;;;;;;15.20;83.80;;;;;;5090639;28;19914;-75
2021/09/21 05:57:22;;;;;;;;;;;15.20;83.70;;;;;;5108697;28;20400;-74
2021/09/21 05:59:47;;;;;;;;;;;15.20;83.80;;;;;;5108386;28;19976;-76
2021/09/21 06:02:13;;;;;;;;;;;15.20;83.80;;;;;;5108634;28;19915;-76
2021/09/21 06:04:39;;;;;;;;;;;15.20;83.70;;;;;;5108744;28;19912;-76
2021/09/21 06:07:04;;;;;;;;;;;15.20;83.70;;;;;;5108385;28;19935;-76
2021/09/21 06:09:30;;;;;;;;;;;15.20;83.70;;;;;;5108279;28;20018;-74
2021/09/21 06:11:55;;;;;;;;;;;15.20;83.70;;;;;;5108210;28;20296;-75
2021/09/21 06:14:21;;;;;;;;;;;15.10;83.60;;;;;;5108585;28;20404;-76
2021/09/21 06:16:46;;;;;;;;;;;15.10;83.70;;;;;;5090048;28;19915;-75
2021/09/21 06:19:12;;;;;;;;;;;15.00;83.70;;;;;;5108513;28;19996;-75
2021/09/21 06:21:38;;;;;;;;;;;15.00;83.90;;;;;;5108404;28;19915;-74
2021/09/21 06:24:03;;;;;;;;;;;15.00;83.90;;;;;;5108358;28;19903;-75
2021/09/21 06:26:31;;;;;;;;;;;14.90;83.80;;;;;;5108180;28;19915;-76
2021/09/21 06:28:58;;;;;;;;;;;14.90;84.00;;;;;;5108265;28;20370;-73
2021/09/21 06:31:23;;;;;;;;;;;14.90;84.00;;;;;;5108604;28;19994;-76
2021/09/21 06:33:49;;;;;;;;;;;14.90;84.10;;;;;;5090645;28;19995;-73
2021/09/21 06:36:14;;;;;;;;;;;14.90;84.20;;;;;;5090064;28;19953;-74
2021/09/21 06:38:40;;;;;;;;;;;14.90;84.30;;;;;;5108673;28;20397;-73
2021/09/21 06:41:06;;;;;;;;;;;15.00;84.30;;;;;;5111980;28;19915;-76
2021/09/21 06:43:31;;;;;;;;;;;15.00;84.20;;;;;;5112785;28;19904;-75
2021/09/21 06:45:57;;;;;;;;;;;15.00;84.20;;;;;;5112540;28;19907;-75
2021/09/21 06:48:25;;;;;;;;;;;15.00;84.40;;;;;;5112348;28;20251;-77
2021/09/21 06:50:52;;;;;;;;;;;15.00;84.50;;;;;;5112301;28;19908;-75
2021/09/21 06:53:17;;;;;;;;;;;15.10;84.60;;;;;;5112365;28;19992;-75
2021/09/21 06:55:43;;;;;;;;;;;15.10;84.90;;;;;;5112056;28;20253;-74
2021/09/21 06:58:08;;;;;;;;;;;15.10;85.00;;;;;;5112301;28;19929;-75
2021/09/21 07:00:37;;;;;;;;;;;15.10;85.00;;;;;;5111204;28;19904;-75
2021/09/21 07:03:03;;;;;;;;;;;15.20;85.10;;;;;;5094117;28;19915;-75
2021/09/21 07:05:29;;;;;;;;;;;15.30;85.00;;;;;;5111798;28;19908;-75
2021/09/21 07:07:54;;;;;;;;;;;15.40;85.20;;;;;;5111835;28;19938;-77
2021/09/21 07:10:20;;;;;;;;;;;15.50;85.40;;;;;;5111495;28;19977;-73
2021/09/21 07:12:45;;;;;;;;;;;15.70;85.50;;;;;;5111612;28;19903;-74
2021/09/21 07:15:12;;;;;;;;;;;15.80;85.60;;;;;;5111499;28;20280;-74
2021/09/21 07:17:37;;;;;;;;;;;16.00;85.70;;;;;;5093160;28;20346;-74
2021/09/21 07:20:04;;;;;;;;;;;16.20;85.80;;;;;;5111588;28;19935;-75
2021/09/21 07:22:31;;;;;;;;;;;16.30;85.80;;;;;;5111740;28;19991;-76
2021/09/21 07:24:57;;;;;;;;;;;16.40;85.70;;;;;;5077021;28;20354;-75
2021/09/21 07:27:22;;;;;;;;;;;16.50;85.50;;;;;;5111742;28;19934;-75
2021/09/21 07:29:48;;;;;;;;;;;16.50;85.60;;;;;;5112096;28;19912;-75
2021/09/21 07:32:14;;;;;;;;;;;16.60;85.60;;;;;;5110947;28;19985;-76
2021/09/21 07:34:39;;;;;;;;;;;16.60;85.70;;;;;;5111334;28;19904;-76
2021/09/21 07:37:05;;;;;;;;;;;16.70;85.90;;;;;;5110438;28;19910;-75
2021/09/21 07:39:31;;;;;;;;;;;16.80;85.90;;;;;;5110431;28;19994;-74
2021/09/21 07:41:57;;;;;;;;;;;16.80;85.90;;;;;;5110252;28;20357;-75
2021/09/21 07:44:22;;;;;;;;;;;16.90;86.00;;;;;;5110399;28;19911;-75
2021/09/21 07:46:48;;;;;;;;;;;17.00;86.00;;;;;;5110205;28;19908;-75
2021/09/21 07:49:14;;;;;;;;;;;17.20;86.00;;;;;;5110704;28;20281;-75
2021/09/21 07:51:39;;;;;;;;;;;17.30;86.00;;;;;;5110632;28;19907;-77
2021/09/21 07:54:07;;;;;;;;;;;17.40;85.80;;;;;;5110296;28;19903;-76
2021/09/21 07:56:33;;;;;;;;;;;17.50;85.80;;;;;;5110189;28;20273;-74
2021/09/21 07:58:58;;;;;;;;;;;17.60;85.90;;;;;;5110570;28;20002;-75
2021/09/21 08:01:24;;;;;;;;;;;17.80;85.90;;;;;;5110647;28;19911;-75
2021/09/21 08:03:49;;;;;;;;;;;18.00;85.80;;;;;;5093031;28;19911;-76
2021/09/21 08:06:15;;;;;;;;;;;18.00;85.60;;;;;;5110878;28;19908;-77
2021/09/21 08:08:42;;;;;;;;;;;18.10;85.60;;;;;;5092581;28;20230;-76
2021/09/21 08:11:10;;;;;;;;;;;18.10;85.50;;;;;;5110959;28;20006;-75
2021/09/21 08:13:35;;;;;;;;;;;18.10;85.40;;;;;;5111387;28;19903;-76
2021/09/21 08:16:01;;;;;;;;;;;18.00;85.40;;;;;;5092710;28;19925;-74
2021/09/21 08:18:27;;;;;;;;;;;17.90;85.50;;;;;;5110391;28;19961;-76
2021/09/21 08:20:52;;;;;;;;;;;17.90;85.70;;;;;;5091849;28;19947;-75
2021/09/21 08:23:18;;;;;;;;;;;17.90;86.00;;;;;;5110283;28;20275;-76
2021/09/21 08:25:44;;;;;;;;;;;17.90;86.00;;;;;;5092007;28;20353;-77
2021/09/21 08:28:09;;;;;;;;;;;17.90;86.30;;;;;;5091999;28;19919;-75
2021/09/21 08:30:35;;;;;;;;;;;17.90;86.50;;;;;;5109479;28;19981;-75
2021/09/21 08:33:00;;;;;;;;;;;17.90;86.50;;;;;;5110129;28;19987;-74
2021/09/21 08:35:26;;;;;;;;;;;18.00;86.70;;;;;;5110247;28;20044;-75
2021/09/21 08:37:52;;;;;;;;;;;18.10;86.80;;;;;;5109984;28;19904;-75
2021/09/21 08:40:17;;;;;;;;;;;18.20;86.90;;;;;;5110239;28;19953;-74
2021/09/21 08:42:43;;;;;;;;;;;18.40;86.90;;;;;;5110006;28;20514;-75
2021/09/21 08:45:09;;;;;;;;;;;18.60;86.70;;;;;;5110475;28;19911;-76
2021/09/21 08:47:35;;;;;;;;;;;18.70;86.60;;;;;;5110735;28;19997;-77
2021/09/21 08:50:03;;;;;;;;;;;18.90;86.50;;;;;;5074568;28;19941;-75
2021/09/21 08:52:29;;;;;;;;;;;19.00;86.30;;;;;;5092377;28;19912;-76
2021/09/21 08:54:55;;;;;;;;;;;19.00;86.10;;;;;;5092322;28;19904;-73
2021/09/21 08:57:21;;;;;;;;;;;19.10;85.90;;;;;;5091265;28;20057;-75
2021/09/21 08:59:51;;;;;;;;;;;19.20;85.90;;;;;;5109925;28;19922;-76
2021/09/21 09:02:17;;;;;;;;;;;19.30;85.80;;;;;;5090864;28;20284;-75
2021/09/21 09:04:54;;;;;;;;;;;19.40;85.60;;;;;;5110184;28;19948;-75
2021/09/21 09:07:20;;;;;;;;;;;19.50;85.60;;;;;;5110011;28;20303;-75
2021/09/21 09:09:45;;;;;;;;;;;19.70;85.50;;;;;;5091558;28;19950;-75
2021/09/21 09:12:11;;;;;;;;;;;19.70;85.10;;;;;;5109525;28;19912;-75
2021/09/21 09:14:38;;;;;;;;;;;19.80;85.00;;;;;;5108523;28;20358;-76
2021/09/21 09:17:05;;;;;;;;;;;19.80;84.70;;;;;;5109707;28;19908;-74
2021/09/21 09:19:36;;;;;;;;;;;19.80;84.60;;;;;;5104390;28;19911;-75
2021/09/21 09:22:04;;;;;;;;;;;19.80;84.70;;;;;;5091575;28;19956;-76
2021/09/21 09:24:30;;;;;;;;;;;19.80;84.60;;;;;;5109275;28;20333;-75
2021/09/21 09:26:55;;;;;;;;;;;19.90;84.60;;;;;;5109283;28;19969;-75
2021/09/21 09:29:21;;;;;;;;;;;19.90;84.40;;;;;;5090432;28;20282;-77
2021/09/21 09:31:47;;;;;;;;;;;19.80;84.40;;;;;;5074247;28;19908;-76
2021/09/21 09:34:21;;;;;;;;;;;19.80;84.50;;;;;;5090903;28;19914;-75
2021/09/21 09:37:02;;;;;;;;;;;19.80;84.50;;;;;;5109301;28;19903;-75
2021/09/21 09:39:29;;;;;;;;;;;19.80;84.20;;;;;;5091623;28;20403;-75
2021/09/21 09:41:56;;;;;;;;;;;19.70;84.20;;;;;;5091657;28;19975;-75
2021/09/21 09:44:24;;;;;;;;;;;19.70;84.30;;;;;;5109815;28;19997;-74
2021/09/21 09:46:54;;;;;;;;;;;19.70;84.50;;;;;;5110123;28;20027;-75
2021/09/21 09:49:24;;;;;;;;;;;19.70;84.40;;;;;;5109392;28;19904;-76
2021/09/21 09:51:50;;;;;;;;;;;19.70;84.30;;;;;;5109336;28;19908;-75
2021/09/21 09:54:17;;;;;;;;;;;19.70;84.30;;;;;;5108983;28;20350;-75
2021/09/21 09:56:43;;;;;;;;;;;19.70;84.50;;;;;;5109240;28;19903;-77
2021/09/21 09:59:09;;;;;;;;;;;19.70;84.50;;;;;;5108999;28;19943;-75
2021/09/21 10:01:35;;;;;;;;;;;19.80;84.60;;;;;;5087466;28;19908;-75
2021/09/21 10:04:01;;;;;;;;;;;19.80;84.30;;;;;;5087410;28;19911;-77
2021/09/21 10:06:31;;;;;;;;;;;19.90;84.30;;;;;;5089601;28;19903;-76
2021/09/21 10:08:57;;;;;;;;;;;19.90;84.00;;;;;;5089032;28;19923;-75
2021/09/21 10:11:24;;;;;;;;;;;20.00;84.00;;;;;;5089330;28;19987;-74
2021/09/21 10:13:49;;;;;;;;;;;20.10;84.10;;;;;;5089493;28;19904;-75
2021/09/21 10:16:15;;;;;;;;;;;20.30;84.40;;;;;;5092934;28;19960;-76
2021/09/21 10:18:44;;;;;;;;;;;20.70;84.50;;;;;;5093371;28;19912;-75
2021/09/21 10:21:10;;;;;;;;;;;21.10;84.20;;;;;;5093584;28;20366;-80
2021/09/21 10:23:37;;;;;;;;;;;21.90;83.90;;;;;;5093601;28;19911;-79
2021/09/21 10:26:16;;;;;;;;;;;22.40;81.60;;;;;;5092338;28;19904;-80
2021/09/21 10:28:44;;;;;;;;;;;22.40;80.20;;;;;;5092131;28;19912;-76
2021/09/21 10:31:14;;;;;;;;;;;22.30;79.20;;;;;;5091834;28;19904;-78
2021/09/21 10:33:40;;;;;;;;;;;22.10;78.90;;;;;;5095625;28;19908;-76
2021/09/21 10:36:38;;;;;;;;;;;22.00;79.20;;;;;;5094750;28;19911;-75
2021/09/21 10:39:08;;;;;;;;;;;21.90;79.20;;;;;;5058118;28;19911;-78
2021/09/21 10:41:44;;;;;;;;;;;22.00;79.50;;;;;;5112718;28;19945;-74
2021/09/21 10:44:10;;;;;;;;;;;22.10;79.30;;;;;;5113973;28;19954;-76
2021/09/21 10:46:46;;;;;;;;;;;22.00;79.20;;;;;;5112812;28;19954;-78
2021/09/21 10:49:44;;;;;;;;;;;21.90;79.10;;;;;;5087363;28;19908;-78
2021/09/21 10:52:11;;;;;;;;;;;21.70;78.80;;;;;;5060694;28;19903;-77
2021/09/21 10:54:41;;;;;;;;;;;21.50;78.50;;;;;;5112186;28;19957;-74
2021/09/21 10:57:08;;;;;;;;;;;21.20;78.00;;;;;;5111996;28;19910;-74
2021/09/21 10:59:34;;;;;;;;;;;20.90;78.10;;;;;;5112162;28;20424;-76
2021/09/21 11:02:03;;;;;;;;;;;20.80;78.60;;;;;;5094001;28;19914;-76
2021/09/21 11:04:36;;;;;;;;;;;20.70;78.40;;;;;;5094276;28;19950;-75
2021/09/21 11:07:02;;;;;;;;;;;20.80;78.50;;;;;;5112571;28;19911;-78
2021/09/21 11:09:27;;;;;;;;;;;20.80;78.50;;;;;;5112494;28;19919;-76
2021/09/21 11:12:09;;;;;;;;;;;20.90;78.70;;;;;;5094335;28;19919;-75
2021/09/21 11:14:42;;;;;;;;;;;21.00;78.60;;;;;;5112563;28;19904;-76
2021/09/21 11:17:09;;;;;;;;;;;21.20;78.60;;;;;;5112510;28;19904;-75
2021/09/21 11:19:35;;;;;;;;;;;21.30;77.90;;;;;;5112549;28;19911;-77
2021/09/21 11:22:05;;;;;;;;;;;21.40;77.60;;;;;;5112103;28;19992;-76
2021/09/21 11:24:31;;;;;;;;;;;21.40;77.30;;;;;;5111842;28;19938;-73
2021/09/21 11:26:58;;;;;;;;;;;21.60;77.40;;;;;;5092993;28;20300;-78
2021/09/21 11:29:23;;;;;;;;;;;21.70;77.00;;;;;;5093515;28;19903;-77
2021/09/21 11:31:50;;;;;;;;;;;21.80;76.80;;;;;;5112065;28;20361;-75
2021/09/21 11:34:16;;;;;;;;;;;21.70;76.40;;;;;;5093941;28;19907;-76
2021/09/21 11:36:49;;;;;;;;;;;21.70;75.90;;;;;;5111999;28;19982;-76
2021/09/21 11:39:14;;;;;;;;;;;21.50;75.70;;;;;;5093717;28;19907;-77
2021/09/21 11:41:40;;;;;;;;;;;21.30;75.80;;;;;;5111629;28;19927;-76
2021/09/21 11:44:05;;;;;;;;;;;21.10;75.90;;;;;;5092969;28;19929;-74
2021/09/21 11:46:31;;;;;;;;;;;21.00;76.40;;;;;;5111662;28;20056;-80
2021/09/21 11:48:59;;;;;;;;;;;21.00;76.40;;;;;;5093482;28;19911;-78
2021/09/21 11:51:25;;;;;;;;;;;21.00;76.30;;;;;;5093960;28;19904;-76
2021/09/21 11:53:54;;;;;;;;;;;20.90;76.30;;;;;;5093395;28;19961;-78
2021/09/21 11:56:20;;;;;;;;;;;20.80;76.40;;;;;;5093070;28;19976;-76
2021/09/21 11:58:46;;;;;;;;;;;20.80;76.60;;;;;;5092852;28;20021;-79
2021/09/21 12:01:12;;;;;;;;;;;20.80;76.60;;;;;;5076467;28;19998;-76
2021/09/21 12:03:38;;;;;;;;;;;20.80;76.70;;;;;;5093090;28;19903;-77
2021/09/21 12:06:05;;;;;;;;;;;20.90;76.60;;;;;;5092962;28;19911;-76
2021/09/21 12:08:35;;;;;;;;;;;21.00;76.90;;;;;;5110994;28;19923;-79
2021/09/21 12:11:06;;;;;;;;;;;21.20;76.80;;;;;;5092255;28;19919;-76
2021/09/21 12:13:31;;;;;;;;;;;21.30;76.80;;;;;;5111031;28;19994;-77
2021/09/21 12:15:58;;;;;;;;;;;21.40;76.90;;;;;;5111056;28;20015;-75
2021/09/21 12:18:24;;;;;;;;;;;21.60;76.80;;;;;;5092377;28;19915;-76
2021/09/21 12:20:55;;;;;;;;;;;21.70;76.40;;;;;;5111390;28;19907;-75
2021/09/21 12:23:21;;;;;;;;;;;21.70;76.00;;;;;;5111772;28;19918;-78
2021/09/21 12:25:49;;;;;;;;;;;21.50;75.50;;;;;;5093631;28;20003;-76
2021/09/21 12:28:15;;;;;;;;;;;21.30;75.70;;;;;;5092455;28;20395;-76
2021/09/21 12:30:41;;;;;;;;;;;21.20;75.80;;;;;;5110774;28;19915;-77
2021/09/21 12:33:11;;;;;;;;;;;21.10;76.00;;;;;;5110633;28;19939;-76
2021/09/21 12:35:38;;;;;;;;;;;20.90;76.20;;;;;;5108946;28;19905;-76
2021/09/21 12:38:14;;;;;;;;;;;20.90;76.30;;;;;;5104047;28;19903;-74
2021/09/21 12:40:50;;;;;;;;;;;20.70;76.60;;;;;;5094848;28;19907;-76
2021/09/21 12:43:20;;;;;;;;;;;20.70;76.70;;;;;;5097532;28;19904;-75
2021/09/21 12:45:46;;;;;;;;;;;20.70;76.70;;;;;;5105790;28;20262;-74
2021/09/21 12:48:12;;;;;;;;;;;20.70;76.80;;;;;;5103205;28;19907;-75
2021/09/21 12:50:41;;;;;;;;;;;20.70;77.00;;;;;;5091860;28;19950;-76
2021/09/21 12:53:15;;;;;;;;;;;20.70;77.10;;;;;;5106667;28;19915;-76
2021/09/21 12:55:43;;;;;;;;;;;20.70;77.10;;;;;;5090333;28;19904;-76
2021/09/21 12:58:09;;;;;;;;;;;20.70;77.10;;;;;;5102454;28;19912;-73
2021/09/21 13:00:36;;;;;;;;;;;20.60;77.20;;;;;;5104734;28;19914;-73
2021/09/21 13:03:03;;;;;;;;;;;20.60;77.40;;;;;;5100341;28;19958;-76
2021/09/21 13:05:28;;;;;;;;;;;20.60;77.40;;;;;;5109044;28;20347;-78
2021/09/21 13:07:54;;;;;;;;;;;20.50;77.40;;;;;;5089625;28;19916;-76
2021/09/21 13:10:20;;;;;;;;;;;20.50;77.70;;;;;;5099070;28;20397;-77
2021/09/21 13:12:52;;;;;;;;;;;20.50;77.60;;;;;;5098252;28;19956;-78
2021/09/21 13:15:18;;;;;;;;;;;20.60;77.80;;;;;;5093556;28;20389;-76
2021/09/21 13:17:43;;;;;;;;;;;20.60;77.80;;;;;;5102181;28;19912;-76
2021/09/21 13:20:09;;;;;;;;;;;20.60;77.90;;;;;;5096441;28;19939;-75
2021/09/21 13:22:35;;;;;;;;;;;20.60;77.90;;;;;;5101514;28;19911;-72
2021/09/21 13:25:00;;;;;;;;;;;20.70;78.00;;;;;;5098301;28;19908;-77
2021/09/21 13:27:26;;;;;;;;;;;20.70;77.80;;;;;;5109990;28;19915;-77
2021/09/21 13:29:51;;;;;;;;;;;20.70;77.80;;;;;;5092104;28;20017;-76
2021/09/21 13:32:17;;;;;;;;;;;20.70;78.00;;;;;;5091153;28;19908;-78
2021/09/21 13:34:43;;;;;;;;;;;20.80;78.10;;;;;;5110522;28;20006;-77
2021/09/21 13:37:08;;;;;;;;;;;20.80;78.00;;;;;;5092013;28;19911;-80
2021/09/21 13:39:34;;;;;;;;;;;20.90;77.80;;;;;;5109500;28;20312;-78
2021/09/21 13:41:59;;;;;;;;;;;20.90;77.70;;;;;;5109806;28;19934;-77
2021/09/21 13:44:27;;;;;;;;;;;20.90;77.80;;;;;;5109462;28;19943;-77
2021/09/21 13:46:52;;;;;;;;;;;20.90;77.90;;;;;;5091751;28;19991;-77
2021/09/21 13:49:18;;;;;;;;;;;20.90;77.80;;;;;;5109730;28;20052;-79
2021/09/21 13:51:43;;;;;;;;;;;20.90;77.80;;;;;;5091059;28;20258;-78
2021/09/21 13:54:09;;;;;;;;;;;20.90;77.90;;;;;;5102961;28;19942;-78
2021/09/21 13:56:34;;;;;;;;;;;20.90;78.00;;;;;;5089670;28;20411;-76
2021/09/21 13:59:01;;;;;;;;;;;21.00;78.00;;;;;;5088127;28;19973;-78
2021/09/21 14:01:27;;;;;;;;;;;21.00;77.70;;;;;;5087356;28;19908;-74
2021/09/21 14:03:52;;;;;;;;;;;21.00;77.70;;;;;;5092932;28;20296;-74
2021/09/21 14:06:18;;;;;;;;;;;21.10;77.80;;;;;;5109217;28;19941;-74
2021/09/21 14:08:43;;;;;;;;;;;21.20;78.00;;;;;;5108728;28;19926;-75
2021/09/21 14:11:09;;;;;;;;;;;21.20;77.80;;;;;;5085753;28;19912;-77
2021/09/21 14:13:34;;;;;;;;;;;21.30;77.80;;;;;;5091054;28;20330;-78
2021/09/21 14:16:00;;;;;;;;;;;21.40;77.50;;;;;;5109515;28;19907;-75
2021/09/21 14:18:27;;;;;;;;;;;21.40;77.60;;;;;;5109528;28;19904;-77
2021/09/21 14:20:53;;;;;;;;;;;21.40;77.50;;;;;;5091212;28;19911;-79
2021/09/21 14:23:19;;;;;;;;;;;21.50;77.60;;;;;;5090203;28;19986;-77